Time;durP1;ratioP1;P1;durP2;ratioP2;P2;SDS_P1;SDS_P2;PMS_P1;PMS_P2;Temp;Humidity;BMP_temperature;BMP_pressure;BME280_temperature;BME280_humidity;BME280_pressure;Samples;Min_cycle;Max_cycle;Signal;HPM_P1;HPM_P2
2021/05/04 00:01:30;;;;;;;6.90;3.83;;;11.90;54.20;;;;;;5089487;28;20432;-66
2021/05/04 00:03:56;;;;;;;5.07;3.00;;;11.80;54.10;;;;;;5089402;28;20280;-66
2021/05/04 00:06:22;;;;;;;3.60;3.30;;;11.80;54.20;;;;;;5089378;28;20173;-66
2021/05/04 00:08:48;;;;;;;3.87;3.23;;;11.80;54.20;;;;;;5089002;28;20176;-66
2021/05/04 00:11:13;;;;;;;3.50;3.20;;;11.90;54.30;;;;;;5082905;28;20269;-66
2021/05/04 00:13:39;;;;;;;3.77;3.27;;;11.80;54.20;;;;;;5075640;28;20771;-66
2021/05/04 00:16:04;;;;;;;5.30;3.60;;;11.80;54.40;;;;;;5075708;28;20160;-67
2021/05/04 00:18:30;;;;;;;3.27;3.00;;;11.80;54.20;;;;;;5075828;28;20161;-67
2021/05/04 00:20:56;;;;;;;3.90;3.50;;;11.80;54.20;;;;;;5075405;28;20567;-66
2021/05/04 00:23:22;;;;;;;3.77;3.00;;;11.80;54.20;;;;;;5075431;28;20397;-66
2021/05/04 00:25:47;;;;;;;3.90;2.90;;;11.80;54.40;;;;;;5075325;28;20650;-66
2021/05/04 00:28:13;;;;;;;4.50;3.70;;;11.80;54.30;;;;;;5075388;28;20153;-66
2021/05/04 00:30:38;;;;;;;3.77;2.80;;;11.80;54.30;;;;;;5075349;28;20165;-66
2021/05/04 00:33:04;;;;;;;3.93;3.47;;;11.80;54.40;;;;;;5075395;28;20166;-66
2021/05/04 00:35:30;;;;;;;3.57;3.00;;;11.80;54.30;;;;;;5075365;28;20569;-66
2021/05/04 00:37:56;;;;;;;3.67;3.10;;;11.80;54.40;;;;;;5075206;28;20186;-66
2021/05/04 00:40:21;;;;;;;3.70;3.07;;;11.80;54.70;;;;;;5075227;28;20198;-66
2021/05/04 00:42:47;;;;;;;3.03;2.73;;;11.80;54.50;;;;;;5075152;28;20187;-66
2021/05/04 00:45:13;;;;;;;3.07;2.80;;;11.80;54.60;;;;;;5075413;28;20152;-66
2021/05/04 00:47:39;;;;;;;4.03;2.93;;;11.80;54.40;;;;;;5075160;28;20158;-66
2021/05/04 00:50:05;;;;;;;4.30;3.27;;;11.80;54.60;;;;;;5074715;28;20226;-66
2021/05/04 00:52:32;;;;;;;3.07;2.77;;;11.80;54.50;;;;;;5074965;28;20183;-67
2021/05/04 00:54:58;;;;;;;3.60;2.67;;;11.90;54.60;;;;;;5075006;28;20394;-66
2021/05/04 00:57:24;;;;;;;5.63;3.03;;;11.90;54.60;;;;;;5075125;28;20406;-66
2021/05/04 00:59:51;;;;;;;3.80;3.50;;;11.90;54.70;;;;;;5074352;28;20676;-66
2021/05/04 01:02:17;;;;;;;3.00;2.70;;;11.80;54.60;;;;;;5075059;28;20495;-66
2021/05/04 01:04:44;;;;;;;4.03;2.80;;;11.90;54.60;;;;;;5074774;28;20395;-66
2021/05/04 01:07:09;;;;;;;4.37;3.07;;;11.90;54.60;;;;;;5074665;28;20801;-66
2021/05/04 01:09:35;;;;;;;2.80;2.60;;;11.90;54.70;;;;;;5074526;28;20403;-66
2021/05/04 01:12:01;;;;;;;2.60;2.40;;;11.90;54.60;;;;;;5074665;28;20249;-66
2021/05/04 01:14:26;;;;;;;4.63;2.63;;;11.90;54.60;;;;;;5074634;28;20162;-66
2021/05/04 01:16:54;;;;;;;2.90;2.60;;;11.90;54.70;;;;;;5074574;28;20196;-66
2021/05/04 01:19:22;;;;;;;3.00;2.60;;;11.90;54.70;;;;;;5074347;28;20208;-66
2021/05/04 01:21:47;;;;;;;2.80;2.60;;;11.90;54.80;;;;;;5074115;28;20881;-66
2021/05/04 01:24:14;;;;;;;2.90;2.60;;;12.00;54.90;;;;;;5073340;28;20485;-67
2021/05/04 01:26:42;;;;;;;3.27;2.70;;;12.00;54.80;;;;;;5074404;28;20558;-66
2021/05/04 01:29:08;;;;;;;4.00;2.80;;;12.00;54.80;;;;;;5074245;28;20728;-66
2021/05/04 01:31:34;;;;;;;2.90;2.60;;;12.00;55.00;;;;;;5074397;28;20440;-66
2021/05/04 01:33:59;;;;;;;4.13;2.80;;;12.00;54.80;;;;;;5074001;28;20822;-66
2021/05/04 01:36:25;;;;;;;3.13;2.83;;;12.00;54.70;;;;;;5073795;28;20165;-66
2021/05/04 01:38:51;;;;;;;2.33;2.13;;;12.00;54.80;;;;;;5074123;28;20171;-66
2021/05/04 01:41:16;;;;;;;3.03;2.80;;;12.10;55.00;;;;;;5073975;28;20158;-66
2021/05/04 01:43:42;;;;;;;4.10;2.50;;;12.10;55.00;;;;;;5073949;28;20242;-66
2021/05/04 01:46:08;;;;;;;2.70;2.33;;;12.10;54.90;;;;;;5074158;28;20233;-67
2021/05/04 01:48:33;;;;;;;3.20;2.60;;;12.00;54.90;;;;;;5073934;28;20169;-66
2021/05/04 01:50:59;;;;;;;4.20;2.57;;;12.00;55.10;;;;;;5073482;28;20185;-66
2021/05/04 01:53:25;;;;;;;2.60;2.40;;;12.00;55.10;;;;;;5073732;28;20216;-66
2021/05/04 01:55:50;;;;;;;4.90;2.07;;;12.00;55.00;;;;;;5073815;28;20167;-66
2021/05/04 01:58:17;;;;;;;3.00;2.70;;;12.00;55.10;;;;;;5073617;28;20154;-66
2021/05/04 02:00:43;;;;;;;2.63;2.43;;;12.00;55.10;;;;;;5073774;28;20202;-66
2021/05/04 02:03:09;;;;;;;2.47;2.27;;;12.10;55.10;;;;;;5073713;28;20499;-66
2021/05/04 02:05:34;;;;;;;2.53;2.33;;;12.10;55.20;;;;;;5073329;28;20173;-66
2021/05/04 02:08:00;;;;;;;3.00;1.60;;;12.10;55.10;;;;;;5073499;28;20182;-66
2021/05/04 02:10:25;;;;;;;2.20;2.10;;;12.10;55.20;;;;;;5073419;28;20193;-66
2021/05/04 02:12:51;;;;;;;2.70;1.90;;;12.10;55.20;;;;;;5073397;28;20170;-67
2021/05/04 02:15:17;;;;;;;2.40;1.60;;;12.10;55.30;;;;;;5073654;28;20733;-66
2021/05/04 02:17:42;;;;;;;2.63;2.43;;;12.10;55.30;;;;;;5073288;28;20167;-66
2021/05/04 02:20:10;;;;;;;2.73;2.17;;;12.10;55.40;;;;;;5073222;28;20278;-66
2021/05/04 02:22:35;;;;;;;2.80;2.03;;;12.10;55.40;;;;;;5073155;28;20156;-66
2021/05/04 02:25:02;;;;;;;2.50;1.87;;;12.10;55.40;;;;;;5073009;28;20415;-66
2021/05/04 02:27:28;;;;;;;3.10;2.20;;;12.10;55.60;;;;;;5073282;28;20151;-66
2021/05/04 02:29:53;;;;;;;3.30;2.43;;;12.10;55.90;;;;;;5073350;28;20420;-67
2021/05/04 02:32:19;;;;;;;4.10;2.00;;;12.10;56.60;;;;;;5073053;28;20643;-66
2021/05/04 02:34:44;;;;;;;3.27;1.93;;;12.10;56.20;;;;;;5072816;28;20157;-67
2021/05/04 02:37:10;;;;;;;2.37;1.57;;;12.10;58.60;;;;;;5073328;28;20208;-67
2021/05/04 02:39:35;;;;;;;2.03;1.50;;;12.10;59.50;;;;;;5072954;28;20193;-66
2021/05/04 02:42:01;;;;;;;3.43;1.83;;;12.00;61.60;;;;;;5072832;28;20186;-66
2021/05/04 02:44:27;;;;;;;4.57;1.83;;;11.90;67.00;;;;;;5073164;28;20520;-66
2021/05/04 02:46:52;;;;;;;3.83;1.87;;;11.70;79.30;;;;;;5073451;28;20164;-69
2021/05/04 02:49:18;;;;;;;4.00;2.27;;;11.60;87.70;;;;;;5072982;28;20181;-69
2021/05/04 02:51:44;;;;;;;2.53;1.63;;;11.30;92.80;;;;;;5072856;28;20204;-69
2021/05/04 02:54:10;;;;;;;6.73;2.03;;;11.20;98.40;;;;;;5072854;28;20165;-69
2021/05/04 02:56:35;;;;;;;5.47;2.20;;;11.10;99.90;;;;;;5073069;28;20406;-69
2021/05/04 02:59:01;;;;;;;4.90;2.07;;;11.00;99.90;;;;;;5072930;28;20257;-66
2021/05/04 03:01:26;;;;;;;8.47;2.20;;;10.90;99.90;;;;;;5073052;28;20167;-66
2021/05/04 03:03:53;;;;;;;3.00;2.10;;;10.70;99.90;;;;;;5072747;28;20160;-66
2021/05/04 03:06:18;;;;;;;8.23;2.00;;;10.60;99.90;;;;;;5072823;28;20160;-66
2021/05/04 03:08:44;;;;;;;4.83;1.83;;;10.50;99.90;;;;;;5072729;28;20753;-66
2021/05/04 03:11:10;;;;;;;3.37;2.00;;;10.40;99.90;;;;;;5072541;28;20182;-66
2021/05/04 03:13:35;;;;;;;3.33;2.00;;;10.30;99.90;;;;;;5072762;28;20809;-66
2021/05/04 03:16:01;;;;;;;4.50;2.50;;;10.20;99.90;;;;;;5072934;28;20666;-66
2021/05/04 03:18:27;;;;;;;10.63;2.00;;;10.20;99.90;;;;;;5073006;28;20159;-66
2021/05/04 03:20:52;;;;;;;5.80;2.13;;;10.10;99.90;;;;;;5072726;28;20187;-66
2021/05/04 03:23:21;;;;;;;3.83;1.87;;;10.10;99.90;;;;;;5072637;28;20159;-66
2021/05/04 03:25:47;;;;;;;4.60;2.27;;;10.00;99.90;;;;;;5072528;28;20155;-66
2021/05/04 03:28:13;;;;;;;3.90;1.97;;;9.90;99.90;;;;;;5072599;28;20402;-66
2021/05/04 03:30:39;;;;;;;4.00;2.20;;;9.90;99.90;;;;;;5072730;28;20408;-66
2021/05/04 03:33:05;;;;;;;3.43;2.00;;;9.80;99.90;;;;;;5072503;28;20421;-66
2021/05/04 03:35:31;;;;;;;5.40;2.30;;;9.80;99.90;;;;;;5072787;28;20167;-66
2021/05/04 03:37:58;;;;;;;3.80;2.43;;;9.70;99.90;;;;;;5072398;28;20405;-66
2021/05/04 03:40:23;;;;;;;3.37;1.97;;;9.70;99.90;;;;;;5072291;28;20444;-66
2021/05/04 03:42:49;;;;;;;3.33;2.10;;;9.70;99.90;;;;;;5072730;28;20390;-66
2021/05/04 03:45:15;;;;;;;5.83;2.60;;;9.70;99.90;;;;;;5072580;28;20191;-66
2021/05/04 03:47:42;;;;;;;5.63;2.70;;;9.60;99.90;;;;;;5075706;28;20400;-66
2021/05/04 03:50:11;;;;;;;4.47;2.50;;;9.50;99.90;;;;;;5075933;28;20178;-66
2021/05/04 03:52:37;;;;;;;4.23;2.50;;;9.40;99.90;;;;;;5076167;28;20455;-66
2021/05/04 03:55:04;;;;;;;2.83;2.20;;;9.40;99.90;;;;;;5076056;28;20401;-66
2021/05/04 03:57:30;;;;;;;3.00;2.70;;;9.30;99.90;;;;;;5076125;28;20177;-66
2021/05/04 03:59:56;;;;;;;3.33;2.97;;;9.30;99.90;;;;;;5076169;28;20510;-66
2021/05/04 04:02:21;;;;;;;3.80;3.00;;;9.20;99.90;;;;;;5076385;28;20830;-66
2021/05/04 04:04:47;;;;;;;4.77;3.23;;;9.10;99.90;;;;;;5076195;28;20483;-66
2021/05/04 04:07:12;;;;;;;3.80;2.93;;;9.10;99.90;;;;;;5076124;28;20580;-66
2021/05/04 04:09:38;;;;;;;3.90;3.60;;;9.00;99.90;;;;;;5075785;28;20177;-66
2021/05/04 04:12:04;;;;;;;2.70;2.50;;;8.90;99.90;;;;;;5075947;28;20212;-66
2021/05/04 04:14:29;;;;;;;3.20;2.90;;;8.90;99.90;;;;;;5076784;28;20253;-66
2021/05/04 04:16:55;;;;;;;3.13;2.80;;;8.80;99.90;;;;;;5075974;28;20390;-66
2021/05/04 04:19:20;;;;;;;2.83;2.63;;;8.70;99.90;;;;;;5076020;28;20205;-66
2021/05/04 04:21:49;;;;;;;5.50;3.10;;;8.70;99.90;;;;;;5075707;28;20153;-66
2021/05/04 04:24:15;;;;;;;3.30;3.00;;;8.70;99.90;;;;;;5075464;28;20323;-66
2021/05/04 04:26:40;;;;;;;2.90;2.40;;;8.60;99.90;;;;;;5076142;28;20424;-67
2021/05/04 04:29:06;;;;;;;3.63;3.07;;;8.50;99.90;;;;;;5076551;28;20492;-66
2021/05/04 04:31:32;;;;;;;4.27;3.00;;;8.50;99.90;;;;;;5075556;28;20504;-66
2021/05/04 04:33:57;;;;;;;2.80;2.50;;;8.40;99.90;;;;;;5075374;28;20159;-66
2021/05/04 04:36:23;;;;;;;3.37;3.10;;;8.40;99.90;;;;;;5075412;28;20232;-66
2021/05/04 04:38:48;;;;;;;3.37;3.07;;;8.40;99.90;;;;;;5075377;28;20246;-66
2021/05/04 04:41:14;;;;;;;5.13;2.70;;;8.40;99.90;;;;;;5075559;28;20296;-66
2021/05/04 04:43:39;;;;;;;3.60;2.77;;;8.40;99.90;;;;;;5075899;28;20204;-66
2021/05/04 04:46:05;;;;;;;3.60;2.60;;;8.50;99.90;;;;;;5075280;28;20161;-66
2021/05/04 04:48:30;;;;;;;3.30;2.53;;;8.50;99.90;;;;;;5075336;28;20631;-66
2021/05/04 04:50:56;;;;;;;5.90;3.43;;;8.50;99.90;;;;;;5074962;28;20193;-66
2021/05/04 04:53:22;;;;;;;10.83;2.77;;;8.50;99.90;;;;;;5074884;28;20225;-66
2021/05/04 04:55:47;;;;;;;3.67;2.40;;;8.50;99.90;;;;;;5075632;28;20170;-67
2021/05/04 04:58:13;;;;;;;3.73;2.97;;;8.50;99.90;;;;;;5074914;28;20185;-66
2021/05/04 05:00:38;;;;;;;2.93;2.60;;;8.50;99.90;;;;;;5074915;28;20212;-66
2021/05/04 05:03:04;;;;;;;3.70;2.40;;;8.60;99.90;;;;;;5074980;28;20161;-66
2021/05/04 05:05:30;;;;;;;2.67;2.47;;;8.60;99.90;;;;;;5074979;28;20168;-67
2021/05/04 05:07:55;;;;;;;3.53;2.50;;;8.60;99.90;;;;;;5074744;28;20400;-66
2021/05/04 05:10:21;;;;;;;2.40;2.20;;;8.70;99.90;;;;;;5075528;28;20171;-66
2021/05/04 05:12:46;;;;;;;4.43;2.03;;;8.70;99.90;;;;;;5075587;28;20194;-67
2021/05/04 05:15:14;;;;;;;6.50;2.33;;;8.80;99.90;;;;;;5074729;28;20185;-66
2021/05/04 05:17:39;;;;;;;2.37;2.17;;;8.80;99.90;;;;;;5074675;28;20159;-66
2021/05/04 05:20:06;;;;;;;4.03;2.17;;;8.80;99.90;;;;;;5074498;28;20458;-67
2021/05/04 05:22:31;;;;;;;2.83;2.20;;;8.80;99.90;;;;;;5074572;28;20205;-66
2021/05/04 05:24:58;;;;;;;2.60;2.37;;;8.80;99.90;;;;;;5074958;28;20405;-67
2021/05/04 05:27:23;;;;;;;2.43;1.77;;;8.80;99.90;;;;;;5075482;28;20257;-66
2021/05/04 05:29:49;;;;;;;1.73;1.63;;;8.80;99.90;;;;;;5074375;28;20475;-66
2021/05/04 05:32:15;;;;;;;3.17;2.40;;;8.80;99.90;;;;;;5074178;28;20589;-66
2021/05/04 05:34:41;;;;;;;2.60;2.40;;;8.80;99.90;;;;;;5074275;28;20167;-66
2021/05/04 05:37:07;;;;;;;2.67;2.20;;;8.80;99.90;;;;;;5074420;28;20239;-66
2021/05/04 05:39:37;;;;;;;3.40;2.43;;;8.80;99.90;;;;;;5075334;28;20194;-66
2021/05/04 05:42:03;;;;;;;3.90;2.00;;;8.70;99.90;;;;;;5074574;28;20389;-66
2021/05/04 05:44:29;;;;;;;2.60;2.40;;;8.60;99.90;;;;;;5074346;28;20526;-66
2021/05/04 05:46:54;;;;;;;2.53;2.07;;;8.60;99.90;;;;;;5074153;28;20823;-66
2021/05/04 05:49:20;;;;;;;3.00;2.60;;;8.60;99.90;;;;;;5073693;28;20206;-66
2021/05/04 05:51:45;;;;;;;2.57;1.87;;;8.50;99.90;;;;;;5074146;28;20178;-66
2021/05/04 05:54:11;;;;;;;6.87;3.10;;;8.50;99.90;;;;;;5074611;28;20249;-66
2021/05/04 05:56:36;;;;;;;3.37;3.07;;;8.50;99.90;;;;;;5074246;28;20162;-66
2021/05/04 05:59:02;;;;;;;2.03;1.80;;;8.50;99.90;;;;;;5073721;28;20213;-66
2021/05/04 06:01:28;;;;;;;5.10;2.03;;;8.50;99.90;;;;;;5074067;28;20158;-66
2021/05/04 06:03:53;;;;;;;3.43;2.50;;;8.50;99.90;;;;;;5073785;28;20608;-66
2021/05/04 06:06:19;;;;;;;2.20;2.00;;;8.50;99.90;;;;;;5073733;28;20182;-66
2021/05/04 06:08:45;;;;;;;3.20;2.10;;;8.50;99.90;;;;;;5074135;28;20245;-66
2021/05/04 06:11:10;;;;;;;1.90;1.43;;;8.50;99.90;;;;;;5074045;28;20158;-66
2021/05/04 06:13:36;;;;;;;2.47;2.20;;;8.60;99.90;;;;;;5073554;28;20167;-66
2021/05/04 06:16:04;;;;;;;2.37;1.53;;;8.60;99.90;;;;;;5073608;28;20211;-66
2021/05/04 06:18:30;;;;;;;2.40;2.20;;;8.60;99.90;;;;;;5073464;28;20156;-66
2021/05/04 06:20:55;;;;;;;1.97;1.87;;;8.70;99.90;;;;;;5073254;28;20531;-66
2021/05/04 06:23:21;;;;;;;2.53;2.10;;;8.80;99.90;;;;;;5073865;28;20243;-66
2021/05/04 06:25:47;;;;;;;2.57;1.67;;;8.80;99.90;;;;;;5073648;28;20203;-66
2021/05/04 06:28:12;;;;;;;2.93;2.30;;;8.90;99.90;;;;;;5073185;28;20162;-66
2021/05/04 06:30:39;;;;;;;2.87;2.20;;;8.90;99.90;;;;;;5073313;28;20162;-66
2021/05/04 06:33:09;;;;;;;1.90;1.70;;;9.00;99.90;;;;;;5073257;28;20162;-66
2021/05/04 06:35:38;;;;;;;2.93;1.87;;;9.00;99.90;;;;;;5073329;28;20870;-66
2021/05/04 06:38:04;;;;;;;2.90;1.97;;;9.10;99.90;;;;;;5073744;28;20396;-66
2021/05/04 06:40:34;;;;;;;2.23;2.03;;;9.10;99.90;;;;;;5073131;28;20454;-66
2021/05/04 06:43:01;;;;;;;2.33;1.90;;;9.30;99.90;;;;;;5073227;28;20451;-66
2021/05/04 06:45:27;;;;;;;3.33;1.87;;;9.30;99.90;;;;;;5073423;28;20955;-66
2021/05/04 06:47:52;;;;;;;2.67;2.00;;;9.40;99.90;;;;;;5073305;28;20481;-66
2021/05/04 06:50:18;;;;;;;2.43;2.10;;;9.50;99.90;;;;;;5073082;28;20909;-66
2021/05/04 06:52:44;;;;;;;5.00;1.60;;;9.60;99.90;;;;;;5073854;28;20675;-66
2021/05/04 06:55:10;;;;;;;2.10;1.90;;;9.50;99.90;;;;;;5073002;28;20155;-66
2021/05/04 06:57:36;;;;;;;2.10;1.90;;;9.60;99.90;;;;;;5072879;28;20185;-66
2021/05/04 07:00:04;;;;;;;2.67;1.93;;;9.50;99.90;;;;;;5072789;28;20999;-66
2021/05/04 07:02:29;;;;;;;1.93;1.83;;;9.50;99.90;;;;;;5073461;28;20155;-66
2021/05/04 07:04:55;;;;;;;3.27;2.10;;;9.40;99.90;;;;;;5073008;28;20398;-66
2021/05/04 07:07:20;;;;;;;3.20;2.13;;;9.40;99.90;;;;;;5073553;28;20175;-66
2021/05/04 07:09:46;;;;;;;2.00;1.90;;;9.30;99.90;;;;;;5072968;28;20165;-66
2021/05/04 07:12:11;;;;;;;2.20;2.00;;;9.30;99.90;;;;;;5072814;28;20159;-66
2021/05/04 07:14:38;;;;;;;3.30;2.30;;;9.30;99.90;;;;;;5072670;28;20552;-66
2021/05/04 07:17:04;;;;;;;3.00;2.30;;;9.20;99.90;;;;;;5072808;28;20165;-66
2021/05/04 07:19:30;;;;;;;3.50;2.10;;;9.20;99.90;;;;;;5074346;28;20448;-66
2021/05/04 07:21:56;;;;;;;2.20;2.00;;;9.30;99.90;;;;;;5075026;28;20413;-66
2021/05/04 07:24:22;;;;;;;3.00;2.10;;;9.30;99.90;;;;;;5076849;28;20187;-66
2021/05/04 07:26:48;;;;;;;2.10;1.83;;;9.30;99.90;;;;;;5076724;28;20397;-66
2021/05/04 07:29:14;;;;;;;2.03;1.93;;;9.30;99.90;;;;;;5074887;28;20412;-66
2021/05/04 07:31:40;;;;;;;2.80;2.60;;;9.30;99.90;;;;;;5076300;28;20635;-66
2021/05/04 07:34:05;;;;;;;2.27;2.07;;;9.30;99.90;;;;;;5077055;28;20561;-66
2021/05/04 07:36:31;;;;;;;3.10;1.80;;;9.30;99.90;;;;;;5077166;28;20483;-66
2021/05/04 07:38:58;;;;;;;2.13;1.93;;;9.40;99.90;;;;;;5076586;28;20194;-66
2021/05/04 07:41:24;;;;;;;1.90;1.80;;;9.40;99.90;;;;;;5076613;28;20159;-66
2021/05/04 07:43:50;;;;;;;2.90;2.07;;;9.50;99.90;;;;;;5076392;28;20404;-66
2021/05/04 07:46:16;;;;;;;1.77;1.63;;;9.50;99.90;;;;;;5076315;28;20869;-66
2021/05/04 07:48:41;;;;;;;3.20;1.90;;;9.60;99.90;;;;;;5076267;28;20171;-66
2021/05/04 07:51:08;;;;;;;4.40;2.03;;;9.60;99.90;;;;;;5077094;28;20654;-67
2021/05/04 07:53:34;;;;;;;1.80;1.70;;;9.60;99.90;;;;;;5076252;28;20167;-66
2021/05/04 07:56:00;;;;;;;2.00;1.80;;;9.70;99.90;;;;;;5074857;28;20401;-66
2021/05/04 07:58:25;;;;;;;1.90;1.80;;;9.60;99.90;;;;;;5076013;28;20632;-66
2021/05/04 08:00:51;;;;;;;6.17;2.07;;;9.60;99.90;;;;;;5075927;28;20468;-66
2021/05/04 08:03:17;;;;;;;2.17;1.97;;;9.70;99.90;;;;;;5076192;28;20159;-66
2021/05/04 08:05:42;;;;;;;2.17;1.97;;;9.70;99.90;;;;;;5076314;28;20668;-66
2021/05/04 08:08:12;;;;;;;4.77;1.90;;;9.70;99.90;;;;;;5075968;28;20489;-66
2021/05/04 08:10:38;;;;;;;2.63;2.17;;;9.70;99.90;;;;;;5075931;28;20190;-66
2021/05/04 08:13:04;;;;;;;4.17;2.07;;;9.70;99.90;;;;;;5076020;28;20425;-66
2021/05/04 08:15:30;;;;;;;3.60;1.70;;;9.80;99.90;;;;;;5075916;28;20164;-66
2021/05/04 08:17:59;;;;;;;3.07;2.30;;;9.80;99.90;;;;;;5076083;28;20409;-67
2021/05/04 08:20:30;;;;;;;2.87;2.10;;;9.70;99.90;;;;;;5076293;28;20635;-66
2021/05/04 08:22:56;;;;;;;2.40;2.20;;;9.80;99.90;;;;;;5075367;28;20455;-66
2021/05/04 08:25:22;;;;;;;2.20;2.00;;;9.80;99.90;;;;;;5075652;28;20385;-66
2021/05/04 08:27:48;;;;;;;2.53;2.30;;;9.90;99.90;;;;;;5075922;28;20159;-66
2021/05/04 08:30:14;;;;;;;2.40;2.20;;;9.80;99.90;;;;;;5075526;28;20447;-66
2021/05/04 08:32:40;;;;;;;3.30;2.40;;;9.90;99.90;;;;;;5075197;28;20167;-67
2021/05/04 08:35:06;;;;;;;1.97;1.87;;;9.90;99.90;;;;;;5076072;28;20393;-66
2021/05/04 08:37:32;;;;;;;3.00;1.90;;;10.10;99.90;;;;;;5075447;28;20555;-66
2021/05/04 08:39:57;;;;;;;3.10;1.90;;;10.40;99.90;;;;;;5075127;28;20455;-66
2021/05/04 08:42:23;;;;;;;2.33;2.00;;;10.70;99.90;;;;;;5075305;28;20165;-66
2021/05/04 08:44:52;;;;;;;2.00;1.50;;;10.90;99.90;;;;;;5075505;28;20608;-67
2021/05/04 08:47:20;;;;;;;3.77;2.10;;;11.10;99.90;;;;;;5075217;28;20185;-67
2021/05/04 08:49:47;;;;;;;9.20;1.77;;;11.30;99.90;;;;;;5075511;28;20931;-66
2021/05/04 08:52:12;;;;;;;3.83;1.83;;;11.50;99.90;;;;;;5075070;28;20471;-66
2021/05/04 08:54:38;;;;;;;4.33;2.00;;;11.90;99.90;;;;;;5075019;28;20939;-66
2021/05/04 08:57:04;;;;;;;3.03;1.57;;;12.30;99.90;;;;;;5074957;28;20662;-66
2021/05/04 08:59:30;;;;;;;2.40;1.60;;;12.50;99.90;;;;;;5074737;28;20461;-67
2021/05/04 09:01:55;;;;;;;2.70;1.57;;;12.50;99.90;;;;;;5075425;28;20625;-66
2021/05/04 09:04:28;;;;;;;1.90;1.80;;;12.70;99.90;;;;;;5075198;28;20160;-66
2021/05/04 09:06:56;;;;;;;2.20;2.00;;;12.50;99.90;;;;;;5074874;28;20148;-66
2021/05/04 09:09:29;;;;;;;3.50;1.70;;;12.30;99.90;;;;;;5074987;28;20394;-66
2021/05/04 09:17:47;;;;;;;3.17;1.77;;;12.10;99.90;;;;;;5111416;27;20547;-66
2021/05/04 09:20:22;;;;;;;3.43;1.90;;;11.90;99.90;;;;;;5094851;28;20400;-66
2021/05/04 09:22:47;;;;;;;2.60;2.33;;;11.80;99.90;;;;;;5111052;28;20414;-66
2021/05/04 09:28:09;;;;;;;2.60;2.40;;;11.70;99.90;;;;;;5110523;27;20510;-67
2021/05/04 09:30:35;;;;;;;2.70;2.50;;;11.40;99.90;;;;;;5080461;28;20401;-67
2021/05/04 09:33:16;;;;;;;2.70;2.50;;;11.50;99.90;;;;;;5070772;28;20378;-67
2021/05/04 09:35:42;;;;;;;3.30;2.80;;;11.60;99.90;;;;;;5070300;28;20740;-67
2021/05/04 09:38:10;;;;;;;2.90;2.60;;;11.50;99.90;;;;;;5070466;28;20389;-67
2021/05/04 09:40:37;;;;;;;3.13;2.87;;;11.50;99.90;;;;;;5109702;27;20196;-67
2021/05/04 09:43:05;;;;;;;4.20;2.43;;;11.50;99.90;;;;;;5103879;28;20402;-67
2021/05/04 09:45:32;;;;;;;3.23;2.53;;;11.40;99.90;;;;;;5096230;28;20405;-67
2021/05/04 09:48:17;;;;;;;3.43;3.13;;;11.30;99.90;;;;;;5107706;28;20549;-67
2021/05/04 09:56:10;;;;;;;3.00;2.80;;;11.20;99.90;;;;;;5070107;28;20922;-67
2021/05/04 09:58:46;;;;;;;4.00;3.60;;;11.10;99.90;;;;;;5065982;28;20433;-67
2021/05/04 10:01:13;;;;;;;3.67;3.00;;;11.10;99.90;;;;;;5050884;28;20389;-67
2021/05/04 10:03:41;;;;;;;4.13;3.00;;;11.10;99.90;;;;;;5050207;28;20408;-67
2021/05/04 10:06:08;;;;;;;2.13;1.93;;;11.20;99.90;;;;;;5050369;28;20404;-67
2021/05/04 10:08:35;;;;;;;4.47;2.23;;;11.30;99.90;;;;;;5050532;28;20873;-67
2021/05/04 10:11:03;;;;;;;6.13;2.47;;;11.30;99.90;;;;;;5050303;28;20908;-67
2021/05/04 10:13:30;;;;;;;4.17;2.10;;;11.30;99.90;;;;;;5050096;28;20393;-67
2021/05/04 10:15:57;;;;;;;3.60;2.20;;;11.30;99.90;;;;;;5050747;28;20478;-67
2021/05/04 10:18:23;;;;;;;5.23;2.73;;;11.40;99.90;;;;;;5049986;28;20423;-67
2021/05/04 10:20:52;;;;;;;3.00;2.07;;;11.40;99.90;;;;;;5049971;28;20416;-67
2021/05/04 10:23:18;;;;;;;7.03;2.63;;;11.70;99.90;;;;;;5049973;28;20389;-67
2021/05/04 10:25:45;;;;;;;2.23;1.60;;;12.00;99.90;;;;;;5050084;28;20410;-67
2021/05/04 10:28:12;;;;;;;4.63;1.93;;;12.20;99.90;;;;;;5050083;28;20171;-67
2021/05/04 10:30:38;;;;;;;5.13;1.33;;;12.50;99.90;;;;;;5050368;28;20891;-67
2021/05/04 10:33:11;;;;;;;2.37;1.47;;;12.70;99.90;;;;;;5049425;28;20407;-67
2021/05/04 10:35:42;;;;;;;5.63;1.53;;;12.80;99.90;;;;;;5049398;28;20345;-67
2021/05/04 10:38:11;;;;;;;7.50;1.90;;;12.70;99.90;;;;;;5049215;28;20757;-67
2021/05/04 10:40:40;;;;;;;2.40;1.93;;;12.50;99.90;;;;;;5049294;28;20934;-67
2021/05/04 10:45:59;;;;;;;4.93;1.80;;;12.40;99.90;;;;;;5110702;27;20516;-67
2021/05/04 10:48:42;;;;;;;5.17;2.17;;;12.30;99.90;;;;;;5101010;28;20415;-67
2021/05/04 10:51:14;;;;;;;5.40;2.60;;;12.30;99.90;;;;;;5099719;28;20402;-67
2021/05/04 11:04:54;;;;;;;3.67;2.47;;;12.60;99.90;;;;;;5110264;27;20850;-66
2021/05/04 11:07:58;;;;;;;3.90;2.17;;;13.20;99.90;;;;;;5107174;28;20389;-66
2021/05/04 11:10:26;;;;;;;9.13;2.00;;;13.50;99.90;;;;;;5110107;28;20430;-66
2021/05/04 11:12:52;;;;;;;6.90;2.60;;;13.60;99.90;;;;;;5108004;28;20408;-67
2021/05/04 11:15:20;;;;;;;7.73;1.97;;;13.60;99.90;;;;;;5107952;28;20395;-66
2021/05/04 11:17:46;;;;;;;5.57;2.23;;;13.70;99.90;;;;;;5108086;28;20246;-66
2021/05/04 11:20:32;;;;;;;5.93;2.20;;;13.60;99.90;;;;;;5101264;28;20428;-66
2021/05/04 11:22:59;;;;;;;10.93;2.30;;;13.50;99.90;;;;;;5104084;28;20608;-66
2021/05/04 11:25:37;;;;;;;4.77;2.10;;;13.50;99.90;;;;;;5090239;28;20401;-66
2021/05/04 11:28:03;;;;;;;6.67;2.03;;;13.60;99.90;;;;;;5088650;28;20397;-66
2021/05/04 11:30:32;;;;;;;7.03;2.50;;;13.60;99.90;;;;;;5090969;28;20400;-66
2021/05/04 11:32:59;;;;;;;6.93;1.80;;;13.70;99.90;;;;;;5099138;28;20163;-66
2021/05/04 11:35:36;;;;;;;7.23;2.47;;;13.90;99.90;;;;;;5103936;28;20461;-66
2021/05/04 11:38:02;;;;;;;6.60;1.97;;;14.10;99.90;;;;;;5108921;28;20392;-66
2021/05/04 11:40:28;;;;;;;7.27;1.60;;;14.30;99.90;;;;;;5109153;28;20400;-66
2021/05/04 11:43:01;;;;;;;6.87;2.40;;;14.40;99.90;;;;;;5110745;28;20501;-66
2021/05/04 11:48:07;;;;;;;7.23;2.30;;;14.30;99.90;;;;;;5110964;27;20513;-67
2021/05/04 11:50:36;;;;;;;7.20;2.10;;;14.30;99.90;;;;;;5110725;28;20410;-67
2021/05/04 11:53:05;;;;;;;7.57;2.27;;;14.30;99.90;;;;;;5110919;28;20391;-67
2021/05/04 12:00:47;;;;;;;6.07;2.33;;;14.40;99.90;;;;;;5111149;27;20563;-67
2021/05/04 12:03:15;;;;;;;5.60;1.70;;;14.40;99.90;;;;;;5098817;28;20414;-67
2021/05/04 12:05:43;;;;;;;9.03;2.57;;;14.50;99.90;;;;;;5090425;28;20415;-67
2021/05/04 12:08:09;;;;;;;11.77;2.50;;;14.60;99.90;;;;;;5090533;28;20866;-67
2021/05/04 12:13:19;;;;;;;4.10;1.30;;;14.90;99.90;;;;;;5111249;27;20498;-67
2021/05/04 12:15:46;;;;;;;9.30;3.33;;;14.90;99.90;;;;;;5110993;28;20383;-67
2021/05/04 12:21:00;;;;;;;13.43;2.90;;;15.00;98.30;;;;;;5053314;28;20568;-68
2021/05/04 12:26:09;;;;;;;14.00;2.63;;;14.80;98.10;;;;;;5111699;27;20499;-68
2021/05/04 12:31:31;;;;;;;8.67;2.43;;;14.30;97.40;;;;;;5090640;27;20499;-67
2021/05/04 12:33:57;;;;;;;8.07;2.27;;;14.30;97.30;;;;;;5090506;28;20500;-67
2021/05/04 12:39:24;;;;;;;11.10;2.50;;;14.30;96.70;;;;;;5111289;27;20509;-67
2021/05/04 12:41:51;;;;;;;10.83;2.73;;;14.10;94.90;;;;;;5111485;28;20877;-67
2021/05/04 12:47:05;;;;;;;14.10;2.30;;;14.10;94.70;;;;;;5111446;27;20498;-67
2021/05/04 12:49:43;;;;;;;6.53;2.00;;;14.20;95.20;;;;;;5110743;28;20419;-67
2021/05/04 12:54:46;;;;;;;7.50;2.20;;;14.10;94.10;;;;;;5115959;27;20528;-66
2021/05/04 13:00:12;;;;;;;12.80;3.53;;;14.30;94.20;;;;;;5131455;27;20569;-67
2021/05/04 13:02:38;;;;;;;13.13;2.67;;;14.20;93.30;;;;;;5131376;27;20458;-67
2021/05/04 13:05:07;;;;;;;4.80;1.97;;;14.30;94.50;;;;;;5131442;28;20463;-67
2021/05/04 13:32:25;;;;;;;9.13;3.10;;;14.90;94.00;;;;;;5123528;27;20576;-67
2021/05/04 13:34:58;;;;;;;14.20;2.30;;;14.90;93.30;;;;;;5090644;28;20482;-67
2021/05/04 13:37:29;;;;;;;10.67;2.40;;;14.90;92.70;;;;;;5091077;28;20398;-68
2021/05/04 13:48:09;;;;;;;4.33;1.37;;;14.40;98.00;;;;;;5111185;27;20506;-67
2021/05/04 13:50:34;;;;;;;15.53;3.33;;;14.30;98.20;;;;;;5111184;28;20392;-67
2021/05/04 13:53:00;;;;;;;10.27;1.30;;;14.20;97.40;;;;;;5111679;28;20930;-67
2021/05/04 13:55:25;;;;;;;14.00;2.37;;;14.10;97.80;;;;;;5111063;28;20672;-67
2021/05/04 13:57:54;;;;;;;5.93;1.90;;;14.10;97.40;;;;;;5110885;28;20528;-67
2021/05/04 14:00:28;;;;;;;4.57;1.67;;;14.00;98.20;;;;;;5110691;28;20186;-67
2021/05/04 14:05:54;;;;;;;9.83;2.47;;;13.90;96.90;;;;;;5111698;27;20510;-67
2021/05/04 14:25:23;;;;;;;9.27;2.37;;;14.10;93.00;;;;;;5089241;28;20800;-67
2021/05/04 14:27:38;;;;;;;8.87;1.80;;;14.10;92.70;;;;;;5089382;28;20425;-67
2021/05/04 14:30:06;;;;;;;4.13;1.53;;;14.20;91.30;;;;;;5090171;28;20740;-67
2021/05/04 14:32:31;;;;;;;4.97;1.93;;;14.20;90.10;;;;;;5090703;28;20154;-67
2021/05/04 14:35:02;;;;;;;2.93;1.20;;;14.10;86.80;;;;;;5090923;28;20397;-67
2021/05/04 14:40:15;;;;;;;6.77;1.93;;;14.10;85.60;;;;;;5111048;27;20555;-67
2021/05/04 15:04:16;;;;;;;1.80;1.00;;;13.60;91.20;;;;;;5111551;27;20506;-67